OEFCV ENBR-
Flight info
| Callsign | OEFCV |
|---|---|
| Flight time | N/A |
| Altitude | |
| Route | |
| Aircraft | DA42 |
Departure
| Time | 2026-05-07 10:30 |
|---|---|
| Airport | Bergen Airport, Flesland (ENBR) |
Arrival
| Time | N/A |
|---|---|
| Airport | - |
| Time | Latitude | Longitude | Altitude | Speed | Heading |
|---|---|---|---|---|---|
| 2026-05-07 10:19 | 60.29545 | 5.22647 | 143 ft | 0 kts | 270° |
| 2026-05-07 10:24 | 60.29545 | 5.22604 | 144 ft | 1 kts | 267° |
| 2026-05-07 10:25 | 60.29558 | 5.22463 | 142 ft | 20 kts | 294° |
| 2026-05-07 10:25 | 60.29672 | 5.22389 | 143 ft | 20 kts | 353° |
| 2026-05-07 10:25 | 60.29740 | 5.22235 | 142 ft | 18 kts | 261° |
| 2026-05-07 10:25 | 60.29725 | 5.21987 | 143 ft | 18 kts | 262° |
| 2026-05-07 10:26 | 60.29719 | 5.21894 | 143 ft | 0 kts | 258° |
| 2026-05-07 10:28 | 60.29718 | 5.21883 | 143 ft | 5 kts | 262° |
| 2026-05-07 10:28 | 60.29696 | 5.21721 | 140 ft | 15 kts | 211° |
| 2026-05-07 10:28 | 60.29649 | 5.21713 | 141 ft | 0 kts | 170° |
| 2026-05-07 10:29 | 60.29457 | 5.21777 | 146 ft | 57 kts | 169° |
| 2026-05-07 10:29 | 60.28967 | 5.21967 | 271 ft | 76 kts | 169° |
| 2026-05-07 10:29 | 60.28427 | 5.22215 | 536 ft | 83 kts | 169° |
| 2026-05-07 10:30 | 60.27401 | 5.21579 | 969 ft | 96 kts | 245° |
| 2026-05-07 10:30 | 60.27216 | 5.20213 | 1041 ft | 107 kts | 275° |
| 2026-05-07 10:30 | 60.27589 | 5.18955 | 1206 ft | 112 kts | 319° |
| 2026-05-07 10:30 | 60.28316 | 5.18315 | 1260 ft | 122 kts | 343° |
| 2026-05-07 10:31 | 60.29175 | 5.17823 | 1207 ft | 132 kts | 342° |
| 2026-05-07 10:31 | 60.30072 | 5.17280 | 1164 ft | 137 kts | 341° |
| 2026-05-07 10:31 | 60.30967 | 5.16668 | 1150 ft | 125 kts | 339° |
| 2026-05-07 10:31 | 60.31743 | 5.16201 | 1148 ft | 112 kts | 347° |
| 2026-05-07 10:32 | 60.32402 | 5.16629 | 1214 ft | 99 kts | 49° |
| 2026-05-07 10:32 | 60.32750 | 5.17887 | 1051 ft | 107 kts | 69° |
| 2026-05-07 10:32 | 60.32964 | 5.19291 | 980 ft | 102 kts | 92° |
| 2026-05-07 10:32 | 60.32703 | 5.20572 | 864 ft | 93 kts | 139° |
| 2026-05-07 10:33 | 60.32129 | 5.20959 | 676 ft | 85 kts | 171° |
| 2026-05-07 10:33 | 60.31559 | 5.21147 | 528 ft | 82 kts | 178° |
| 2026-05-07 10:33 | 60.30996 | 5.21311 | 390 ft | 83 kts | 176° |
| 2026-05-07 10:33 | 60.30437 | 5.21466 | 244 ft | 79 kts | 172° |
| 2026-05-07 10:34 | 60.29943 | 5.21626 | 152 ft | 59 kts | 174° |
| 2026-05-07 10:34 | 60.29547 | 5.21750 | 148 ft | 70 kts | 171° |
| 2026-05-07 10:34 | 60.29061 | 5.21945 | 386 ft | 72 kts | 173° |
| 2026-05-07 10:34 | 60.28541 | 5.22125 | 625 ft | 83 kts | 172° |
| 2026-05-07 10:35 | 60.27945 | 5.22324 | 845 ft | 95 kts | 171° |
| 2026-05-07 10:35 | 60.27245 | 5.22407 | 1013 ft | 110 kts | 204° |
| 2026-05-07 10:35 | 60.26952 | 5.20978 | 1050 ft | 122 kts | 268° |
| 2026-05-07 10:35 | 60.26940 | 5.19250 | 1069 ft | 124 kts | 265° |
| 2026-05-07 10:36 | 60.26994 | 5.17510 | 1028 ft | 131 kts | 291° |
| 2026-05-07 10:36 | 60.27731 | 5.16468 | 1007 ft | 138 kts | 356° |
| 2026-05-07 10:36 | 60.28691 | 5.16373 | 1002 ft | 138 kts | 355° |
| 2026-05-07 10:36 | 60.29654 | 5.16225 | 1004 ft | 139 kts | 354° |
| 2026-05-07 10:37 | 60.30617 | 5.16054 | 957 ft | 140 kts | 354° |
| 2026-05-07 10:37 | 60.31581 | 5.15918 | 953 ft | 134 kts | 355° |
| 2026-05-07 10:37 | 60.32457 | 5.15896 | 912 ft | 123 kts | 13° |
| 2026-05-07 10:37 | 60.33031 | 5.16875 | 950 ft | 105 kts | 68° |
| 2026-05-07 10:38 | 60.33220 | 5.18270 | 937 ft | 101 kts | 79° |
| 2026-05-07 10:38 | 60.33348 | 5.19674 | 931 ft | 102 kts | 92° |
| 2026-05-07 10:38 | 60.32988 | 5.20740 | 952 ft | 93 kts | 165° |
| 2026-05-07 10:38 | 60.32378 | 5.20872 | 858 ft | 82 kts | 175° |
| 2026-05-07 10:39 | 60.31847 | 5.21046 | 673 ft | 79 kts | 171° |
| 2026-05-07 10:39 | 60.31304 | 5.21225 | 478 ft | 79 kts | 176° |
| 2026-05-07 10:39 | 60.30767 | 5.21351 | 297 ft | 79 kts | 175° |
| 2026-05-07 10:39 | 60.30243 | 5.21533 | 166 ft | 66 kts | 175° |
| 2026-05-07 10:40 | 60.29842 | 5.21655 | 145 ft | 66 kts | 171° |
| 2026-05-07 10:40 | 60.29321 | 5.21868 | 259 ft | 79 kts | 169° |
| 2026-05-07 10:40 | 60.28811 | 5.22056 | 609 ft | 74 kts | 175° |
| 2026-05-07 10:40 | 60.28219 | 5.22211 | 757 ft | 93 kts | 174° |
| 2026-05-07 10:41 | 60.27497 | 5.22429 | 855 ft | 113 kts | 173° |
| 2026-05-07 10:41 | 60.26722 | 5.22178 | 982 ft | 122 kts | 217° |
| 2026-05-07 10:41 | 60.26365 | 5.20597 | 1014 ft | 131 kts | 262° |
| 2026-05-07 10:41 | 60.26272 | 5.18805 | 1017 ft | 131 kts | 262° |
| 2026-05-07 10:42 | 60.26551 | 5.17087 | 1035 ft | 136 kts | 309° |
| 2026-05-07 10:42 | 60.27410 | 5.16307 | 1062 ft | 139 kts | 351° |
| 2026-05-07 10:42 | 60.28371 | 5.16028 | 1001 ft | 142 kts | 350° |
| 2026-05-07 10:42 | 60.29349 | 5.15746 | 995 ft | 141 kts | 351° |
| 2026-05-07 10:43 | 60.30321 | 5.15472 | 1020 ft | 139 kts | 352° |
| 2026-05-07 10:43 | 60.31278 | 5.15326 | 977 ft | 137 kts | 353° |
| 2026-05-07 10:43 | 60.32182 | 5.15183 | 927 ft | 124 kts | 359° |
| 2026-05-07 10:43 | 60.32922 | 5.15816 | 966 ft | 115 kts | 49° |
| 2026-05-07 10:44 | 60.33227 | 5.17275 | 926 ft | 112 kts | 78° |
| 2026-05-07 10:44 | 60.33406 | 5.18735 | 940 ft | 107 kts | 81° |
| 2026-05-07 10:44 | 60.33369 | 5.20102 | 944 ft | 89 kts | 127° |
| 2026-05-07 10:44 | 60.32883 | 5.20760 | 824 ft | 80 kts | 174° |
| 2026-05-07 10:45 | 60.32339 | 5.20934 | 622 ft | 79 kts | 175° |
| 2026-05-07 10:45 | 60.31798 | 5.21052 | 505 ft | 79 kts | 175° |
| 2026-05-07 10:45 | 60.31261 | 5.21204 | 396 ft | 78 kts | 176° |
| 2026-05-07 10:45 | 60.30731 | 5.21376 | 292 ft | 77 kts | 178° |
| 2026-05-07 10:46 | 60.30214 | 5.21537 | 182 ft | 71 kts | 173° |
| 2026-05-07 10:46 | 60.29805 | 5.21666 | 143 ft | 52 kts | 172° |
| 2026-05-07 10:46 | 60.29344 | 5.21835 | 250 ft | 70 kts | 170° |
| 2026-05-07 10:46 | 60.28853 | 5.22048 | 524 ft | 75 kts | 171° |
| 2026-05-07 10:47 | 60.28301 | 5.22295 | 709 ft | 88 kts | 168° |
| 2026-05-07 10:47 | 60.27703 | 5.22611 | 923 ft | 89 kts | 167° |
| 2026-05-07 10:47 | 60.27070 | 5.22763 | 994 ft | 99 kts | 193° |
| 2026-05-07 10:47 | 60.26503 | 5.21900 | 1000 ft | 112 kts | 238° |
| 2026-05-07 10:48 | 60.26343 | 5.20302 | 1003 ft | 123 kts | 264° |
| 2026-05-07 10:48 | 60.26312 | 5.18544 | 998 ft | 128 kts | 269° |
| 2026-05-07 10:48 | 60.26700 | 5.16904 | 1001 ft | 138 kts | 316° |
| 2026-05-07 10:48 | 60.27575 | 5.16194 | 1160 ft | 132 kts | 350° |
| 2026-05-07 10:49 | 60.28455 | 5.15946 | 1366 ft | 124 kts | 352° |
| 2026-05-07 10:49 | 60.29282 | 5.15730 | 1574 ft | 117 kts | 352° |
| 2026-05-07 10:49 | 60.30082 | 5.15522 | 1782 ft | 114 kts | 352° |
| 2026-05-07 10:49 | 60.30858 | 5.15321 | 1985 ft | 112 kts | 352° |
| 2026-05-07 10:50 | 60.31677 | 5.15108 | 1989 ft | 124 kts | 352° |
| 2026-05-07 10:50 | 60.32565 | 5.14877 | 1999 ft | 132 kts | 353° |
| 2026-05-07 10:50 | 60.33525 | 5.14625 | 2005 ft | 144 kts | 352° |
| 2026-05-07 10:50 | 60.34538 | 5.14356 | 2005 ft | 152 kts | 353° |
| 2026-05-07 10:51 | 60.35602 | 5.14074 | 2000 ft | 156 kts | 353° |
| 2026-05-07 10:51 | 60.36691 | 5.13785 | 2002 ft | 159 kts | 352° |
| 2026-05-07 10:51 | 60.37751 | 5.13514 | 2003 ft | 149 kts | 352° |
| 2026-05-07 10:51 | 60.38753 | 5.13263 | 1997 ft | 142 kts | 353° |
| 2026-05-07 10:52 | 60.39713 | 5.13272 | 1986 ft | 138 kts | 19° |
| 2026-05-07 10:52 | 60.40411 | 5.14469 | 1993 ft | 131 kts | 65° |
| 2026-05-07 10:52 | 60.40494 | 5.16211 | 1994 ft | 124 kts | 111° |
| 2026-05-07 10:52 | 60.40010 | 5.17540 | 1993 ft | 117 kts | 141° |
| 2026-05-07 10:53 | 60.39311 | 5.18240 | 1995 ft | 110 kts | 167° |
| 2026-05-07 10:53 | 60.38572 | 5.18596 | 1906 ft | 112 kts | 168° |
| 2026-05-07 10:53 | 60.37807 | 5.18909 | 1750 ft | 108 kts | 170° |
| 2026-05-07 10:53 | 60.37085 | 5.19184 | 1606 ft | 105 kts | 170° |
| 2026-05-07 10:54 | 60.36364 | 5.19448 | 1458 ft | 105 kts | 172° |
| 2026-05-07 10:54 | 60.35639 | 5.19693 | 1312 ft | 107 kts | 171° |
| 2026-05-07 10:54 | 60.34900 | 5.19941 | 1153 ft | 107 kts | 171° |
| 2026-05-07 10:54 | 60.34162 | 5.20191 | 993 ft | 108 kts | 171° |
| 2026-05-07 10:55 | 60.33414 | 5.20441 | 832 ft | 109 kts | 172° |
| 2026-05-07 10:55 | 60.32693 | 5.20682 | 676 ft | 101 kts | 173° |
| 2026-05-07 10:55 | 60.32083 | 5.20890 | 553 ft | 80 kts | 173° |
| 2026-05-07 10:55 | 60.31554 | 5.21072 | 456 ft | 78 kts | 173° |
| 2026-05-07 10:56 | 60.31015 | 5.21248 | 355 ft | 79 kts | 174° |
| 2026-05-07 10:56 | 60.30478 | 5.21456 | 251 ft | 78 kts | 175° |
| 2026-05-07 10:56 | 60.29969 | 5.21620 | 155 ft | 63 kts | 174° |
| 2026-05-07 10:56 | 60.29620 | 5.21724 | 141 ft | 43 kts | 168° |
| 2026-05-07 10:57 | 60.29394 | 5.21825 | 148 ft | 17 kts | 115° |
| 2026-05-07 10:57 | 60.29397 | 5.22031 | 153 ft | 4 kts | 81° |
| 2026-05-07 10:57 | 60.29397 | 5.22032 | 153 ft | 0 kts | 81° |
| 2026-05-07 10:58 | 60.29397 | 5.22035 | 153 ft | 3 kts | 82° |
| 2026-05-07 10:58 | 60.29423 | 5.22124 | 154 ft | 10 kts | 142° |
| 2026-05-07 10:58 | 60.29467 | 5.22208 | 152 ft | 18 kts | 352° |
| 2026-05-07 10:58 | 60.29561 | 5.22344 | 143 ft | 23 kts | 77° |
| 2026-05-07 10:59 | 60.29518 | 5.22535 | 142 ft | 15 kts | 87° |
| 2026-05-07 10:59 | 60.29532 | 5.22632 | 143 ft | 0 kts | 261° |